Weather at Timberline Airport

Public forecast

Using degrees Fahrenheit for public forecast. Weather courtesy of forecast.io.

Closest aviation weather report (METAR) to Timberline Airport

Closest report is Waupaca Municipal Airport, 8.2 nm (15.2 km) SE. Retrieved 2021/06/20 09:35 UTC (0 seconds ago):

KPCZ 200935Z AUTO 00000KT 5SM BR CLR 15/14 A2974 RMK AO2 T01460139

Closest aviation forecast (TAF) to Timberline Airport

Closest forecast is Appleton International Airport, 29.1 nm (53.8 km) ESE. Retrieved 2021/06/20 06:22 UTC (3 hours ago):

TAF KATW 200520Z 2006/2106 15004KT P6SM SCT250 FM201000 14003KT 5SM BR SCT200 FM201100 17005KT P6SM BKN200 FM201600 17006KT P6SM BKN100 FM201900 17008G16KT P6SM -SHRA OVC070 FM202000 17008G16KT 6SM -SHRA OVC035 TEMPO 2020/2024 3SM -TSRA BKN020CB FM210000 16009G17KT 4SM SHRA BKN006 FM210200 22008G21KT P6SM SHRA BKN007